Time;durP1;ratioP1;P1;durP2;ratioP2;P2;SDS_P1;SDS_P2;PMS_P1;PMS_P2;Temp;Humidity;BMP_temperature;BMP_pressure;BME280_temperature;BME280_humidity;BME280_pressure;Samples;Min_cycle;Max_cycle;Signal;HPM_P1;HPM_P2
2021/05/01 00:02:43;;;;;;;28.42;23.27;;;;;;;6.74;69.64;98533.48;2237315;79;21749;-81
2021/05/01 00:05:45;;;;;;;28.83;22.90;;;;;;;6.71;69.68;98526.02;2237829;79;21316;-79
2021/05/01 00:08:47;;;;;;;25.77;21.77;;;;;;;6.63;69.86;98512.98;2237591;79;21325;-79
2021/05/01 00:11:48;;;;;;;26.87;20.35;;;;;;;6.52;70.00;98520.11;2237243;79;21841;-80
2021/05/01 00:14:49;;;;;;;24.10;20.15;;;;;;;6.44;70.09;98522.69;2237401;79;21281;-80
2021/05/01 00:17:51;;;;;;;29.92;22.60;;;;;;;6.36;70.38;98515.34;2237225;79;21324;-80
2021/05/01 00:20:52;;;;;;;27.50;20.68;;;;;;;6.34;70.34;98515.98;2237072;79;21345;-80
2021/05/01 00:23:54;;;;;;;20.70;17.15;;;;;;;6.26;70.57;98505.88;2237263;79;21297;-80
2021/05/01 00:26:56;;;;;;;22.87;18.60;;;;;;;6.25;70.78;98506.05;2237012;79;21321;-81
2021/05/01 00:29:58;;;;;;;28.98;23.27;;;;;;;6.19;70.99;98502.27;2237146;79;21155;-80
2021/05/01 00:33:00;;;;;;;31.82;24.77;;;;;;;6.16;71.13;98497.39;2237525;79;21296;-80
2021/05/01 00:36:01;;;;;;;20.43;16.07;;;;;;;6.15;71.04;98497.55;2237405;79;21284;-79
2021/05/01 00:39:03;;;;;;;21.40;16.42;;;;;;;6.16;71.63;98499.18;2237484;79;21321;-81
2021/05/01 00:42:04;;;;;;;26.42;19.87;;;;;;;6.10;71.20;98503.20;2237246;79;21305;-81
2021/05/01 00:45:06;;;;;;;27.37;20.08;;;;;;;6.09;71.17;98502.88;2237461;79;21313;-80
2021/05/01 00:48:08;;;;;;;23.35;19.17;;;;;;;6.06;71.27;98499.30;2237545;79;21337;-79
2021/05/01 00:51:10;;;;;;;19.82;16.73;;;;;;;6.03;71.21;98503.98;2237585;79;21713;-80
2021/05/01 00:54:11;;;;;;;22.55;18.57;;;;;;;6.04;71.51;98507.75;2237336;79;21278;-80
2021/05/01 00:57:13;;;;;;;33.30;22.55;;;;;;;6.03;71.71;98507.39;2237613;79;21316;-79
2021/05/01 01:03:51;;;;;;;29.72;21.48;;;;;;;6.05;72.66;98516.36;2179863;82;21159;-82
2021/05/01 01:06:53;;;;;;;30.30;26.77;;;;;;;5.97;71.94;98507.55;2179603;82;21183;-82
2021/05/01 01:09:54;;;;;;;39.65;32.25;;;;;;;5.86;72.28;98510.39;2179899;82;21197;-82
2021/05/01 01:12:56;;;;;;;31.85;25.90;;;;;;;5.83;72.17;98511.98;2179772;82;21281;-82
2021/05/01 01:15:58;;;;;;;29.48;21.42;;;;;;;5.87;72.28;98515.91;2179746;82;21699;-82
2021/05/01 01:18:59;;;;;;;23.45;20.62;;;;;;;5.88;72.65;98505.84;2179613;82;21642;-82
2021/05/01 01:22:01;;;;;;;25.50;20.05;;;;;;;5.85;72.64;98507.92;2179871;82;21303;-82
2021/05/01 01:25:03;;;;;;;28.27;21.97;;;;;;;5.76;72.69;98517.48;2179647;82;21197;-81
2021/05/01 01:28:04;;;;;;;26.60;20.90;;;;;;;5.69;72.82;98515.97;2179688;82;21357;-81
2021/05/01 01:31:06;;;;;;;24.43;19.20;;;;;;;5.65;73.34;98515.93;2179840;82;21218;-81
2021/05/01 01:34:08;;;;;;;26.85;20.88;;;;;;;5.61;73.27;98520.30;2179984;82;21164;-80
2021/05/01 01:37:10;;;;;;;26.23;19.73;;;;;;;5.55;73.32;98524.80;2217266;78;21143;-81
2021/05/01 01:40:11;;;;;;;25.15;20.30;;;;;;;5.49;73.17;98530.13;2285429;78;21119;-81
2021/05/01 01:43:13;;;;;;;23.30;18.55;;;;;;;5.49;73.43;98522.34;2285391;78;21297;-81
2021/05/01 01:46:15;;;;;;;26.52;20.70;;;;;;;5.53;73.59;98518.46;2237556;79;21309;-81
2021/05/01 01:49:16;;;;;;;23.15;17.52;;;;;;;5.52;73.67;98522.03;2237246;79;21294;-81
2021/05/01 01:52:18;;;;;;;23.10;17.12;;;;;;;5.46;73.58;98512.23;2237528;79;21703;-81
2021/05/01 01:55:20;;;;;;;24.07;17.57;;;;;;;5.40;73.60;98517.56;2237531;79;21288;-80
2021/05/01 01:58:21;;;;;;;22.27;15.00;;;;;;;5.35;74.13;98510.70;2237020;79;21151;-81
2021/05/01 02:01:24;;;;;;;22.05;17.82;;;;;;;5.27;74.97;98522.80;2200312;81;21273;-81
2021/05/01 02:04:25;;;;;;;21.37;17.37;;;;;;;5.19;74.34;98537.02;2236568;80;21151;-81
2021/05/01 02:07:27;;;;;;;17.67;15.40;;;;;;;5.14;75.08;98531.80;2200434;81;21179;-81
2021/05/01 02:10:30;;;;;;;20.43;14.23;;;;;;;5.11;74.60;98532.56;2236817;80;21159;-81
2021/05/01 02:13:32;;;;;;;21.07;15.78;;;;;;;5.08;74.62;98537.58;2200391;81;21705;-81
2021/05/01 02:16:33;;;;;;;21.35;15.68;;;;;;;5.04;74.57;98523.28;2236762;80;21181;-81
2021/05/01 02:19:36;;;;;;;24.43;19.25;;;;;;;5.02;75.01;98526.48;2200091;81;21586;-81
2021/05/01 02:22:37;;;;;;;22.32;16.87;;;;;;;5.06;74.75;98533.02;2236521;80;21228;-80
2021/05/01 02:25:39;;;;;;;24.15;19.02;;;;;;;5.10;74.78;98534.34;2200164;81;21133;-81
2021/05/01 02:28:40;;;;;;;22.75;19.02;;;;;;;5.16;74.66;98532.13;2237220;80;21293;-81
2021/05/01 02:31:42;;;;;;;24.98;17.62;;;;;;;5.24;74.82;98529.12;2200423;81;21158;-81
2021/05/01 02:34:43;;;;;;;20.60;15.40;;;;;;;5.35;74.71;98518.49;2236849;80;21127;-81
2021/05/01 02:37:45;;;;;;;23.10;18.42;;;;;;;5.43;74.93;98514.66;2200444;81;21128;-81
2021/05/01 02:40:47;;;;;;;22.07;16.80;;;;;;;5.39;74.79;98508.61;2236636;80;21166;-81
2021/05/01 02:43:48;;;;;;;30.37;19.02;;;;;;;5.36;74.79;98507.13;2200409;81;21694;-81
2021/05/01 02:46:50;;;;;;;23.22;18.52;;;;;;;5.33;74.84;98492.36;2236945;80;21155;-81
2021/05/01 02:49:52;;;;;;;20.17;16.27;;;;;;;5.38;75.02;98477.13;2200443;81;21155;-81
2021/05/01 02:52:54;;;;;;;20.15;15.05;;;;;;;5.33;74.92;98476.78;2236758;80;21288;-82
2021/05/01 02:55:55;;;;;;;19.65;16.25;;;;;;;5.23;74.97;98474.77;2200078;81;21285;-82
2021/05/01 02:58:57;;;;;;;21.30;17.42;;;;;;;5.17;75.11;98471.46;2236814;79;21738;-81
2021/05/01 03:01:58;;;;;;;23.50;18.92;;;;;;;5.13;75.40;98475.67;2200106;81;21135;-82
2021/05/01 03:05:00;;;;;;;25.02;19.05;;;;;;;5.09;75.18;98465.23;2236843;80;21131;-81
2021/05/01 03:08:02;;;;;;;27.42;19.35;;;;;;;5.11;75.29;98462.48;2200150;81;21175;-81
2021/05/01 03:11:04;;;;;;;23.42;19.32;;;;;;;5.10;75.26;98466.86;2236478;80;21151;-81
2021/05/01 03:14:06;;;;;;;22.40;18.17;;;;;;;5.10;75.14;98468.64;2200009;81;21257;-81
2021/05/01 03:17:07;;;;;;;24.00;20.05;;;;;;;5.09;75.29;98478.21;2236433;80;21104;-82
2021/05/01 03:20:09;;;;;;;25.35;18.05;;;;;;;5.15;75.48;98479.41;2200013;81;21594;-81
2021/05/01 03:23:11;;;;;;;25.15;19.20;;;;;;;5.17;75.31;98468.38;2236723;80;21257;-81
2021/05/01 03:26:13;;;;;;;28.17;19.45;;;;;;;5.10;75.31;98470.76;2200397;81;21177;-80
2021/05/01 03:29:15;;;;;;;26.25;21.95;;;;;;;5.11;75.38;98473.68;2236765;80;21135;-80
2021/05/01 03:32:17;;;;;;;22.58;18.57;;;;;;;5.16;75.49;98474.55;2200176;81;21301;-80
2021/05/01 03:35:19;;;;;;;26.48;20.02;;;;;;;5.13;75.42;98467.88;2236576;80;21127;-81
2021/05/01 03:38:21;;;;;;;23.40;17.40;;;;;;;5.08;75.32;98466.20;2200465;81;21689;-82
2021/05/01 03:41:23;;;;;;;20.57;17.20;;;;;;;5.09;75.67;98472.20;2236696;80;21423;-81
2021/05/01 03:44:25;;;;;;;23.25;18.80;;;;;;;5.08;75.73;98463.61;2200259;81;21325;-81
2021/05/01 03:47:27;;;;;;;28.75;22.30;;;;;;;5.22;75.76;98457.56;2236646;80;21147;-81
2021/05/01 03:50:28;;;;;;;24.50;21.05;;;;;;;5.43;75.50;98466.63;2200561;81;21316;-81
2021/05/01 03:53:30;;;;;;;29.87;23.40;;;;;;;5.63;75.31;98459.43;2236872;80;21112;-80
2021/05/01 03:56:31;;;;;;;27.85;24.00;;;;;;;5.88;74.94;98464.75;2200428;81;21289;-80
2021/05/01 03:59:33;;;;;;;23.02;20.55;;;;;;;6.11;74.57;98461.94;2231006;80;21599;-81
2021/05/01 04:02:36;;;;;;;24.25;21.65;;;;;;;6.40;74.13;98465.92;2222737;80;21627;-80
2021/05/01 04:05:38;;;;;;;22.67;20.32;;;;;;;6.64;74.02;98471.19;2163957;82;21293;-80
2021/05/01 04:08:39;;;;;;;27.32;21.62;;;;;;;6.85;73.41;98470.72;2222265;80;21151;-80
2021/05/01 04:11:41;;;;;;;26.07;22.00;;;;;;;6.89;73.34;98465.53;2163995;82;21213;-80
2021/05/01 04:14:43;;;;;;;33.95;24.65;;;;;;;7.02;73.17;98467.64;2222149;80;21179;-80
2021/05/01 04:17:45;;;;;;;30.50;24.98;;;;;;;7.08;73.05;98474.81;2164333;82;21349;-80
2021/05/01 04:20:46;;;;;;;32.15;27.45;;;;;;;7.20;72.98;98468.78;2222326;80;21749;-81
2021/05/01 04:23:48;;;;;;;30.77;24.18;;;;;;;7.31;72.69;98474.95;2164152;82;21352;-80
2021/05/01 04:26:50;;;;;;;24.35;19.27;;;;;;;7.28;72.27;98474.80;2222345;80;21274;-81
2021/05/01 04:29:52;;;;;;;25.20;20.48;;;;;;;7.21;72.07;98469.91;2164251;82;21134;-81
2021/05/01 04:32:53;;;;;;;28.02;22.85;;;;;;;7.06;72.05;98473.67;2222192;80;21563;-81
2021/05/01 04:35:55;;;;;;;30.02;25.35;;;;;;;7.03;72.44;98476.58;2164218;82;21637;-81
2021/05/01 04:38:57;;;;;;;31.82;25.95;;;;;;;6.96;72.32;98486.05;2222403;80;21309;-80
2021/05/01 04:41:58;;;;;;;32.95;27.32;;;;;;;6.92;72.48;98486.02;2164154;82;21174;-80
2021/05/01 04:45:00;;;;;;;30.97;26.55;;;;;;;6.86;72.37;98482.78;2222372;80;21560;-80
2021/05/01 04:48:01;;;;;;;27.85;21.30;;;;;;;6.88;72.37;98476.11;2163956;82;21313;-81
2021/05/01 04:51:03;;;;;;;31.07;25.43;;;;;;;6.96;72.36;98486.05;2201462;81;21158;-81
2021/05/01 04:54:05;;;;;;;34.10;28.62;;;;;;;7.09;72.21;98482.94;2163957;82;21336;-81
2021/05/01 04:57:06;;;;;;;35.95;32.05;;;;;;;7.09;72.00;98488.15;2163927;82;21316;-82
2021/05/01 05:00:08;;;;;;;42.13;34.43;;;;;;;7.11;72.05;98483.09;2184423;79;21776;-82
2021/05/01 05:03:10;;;;;;;42.90;37.93;;;;;;;7.17;72.10;98481.64;2243467;79;21162;-82
2021/05/01 05:06:12;;;;;;;29.70;23.92;;;;;;;7.29;72.12;98480.33;2204062;81;21594;-82
2021/05/01 05:09:14;;;;;;;29.32;23.80;;;;;;;7.35;71.75;98477.08;2243972;79;21288;-81
2021/05/01 05:12:15;;;;;;;29.15;20.65;;;;;;;7.32;71.59;98480.02;2203978;81;21258;-82
2021/05/01 05:15:17;;;;;;;21.65;19.27;;;;;;;7.39;71.42;98480.96;2243816;79;21166;-82
2021/05/01 05:18:18;;;;;;;25.08;21.52;;;;;;;7.49;71.33;98482.58;2204192;81;21166;-82
2021/05/01 05:21:20;;;;;;;23.18;18.52;;;;;;;7.59;71.61;98481.91;2243843;79;21167;-81
2021/05/01 05:24:22;;;;;;;30.50;24.37;;;;;;;7.68;71.10;98473.09;2204553;81;21482;-81
2021/05/01 05:27:24;;;;;;;28.32;25.12;;;;;;;7.72;71.16;98477.01;2243782;79;21174;-81
2021/05/01 05:30:25;;;;;;;30.62;25.12;;;;;;;7.79;71.16;98464.94;2204339;81;21147;-81
2021/05/01 05:33:27;;;;;;;24.87;21.17;;;;;;;7.85;71.16;98456.92;2243772;79;21154;-81
2021/05/01 05:36:29;;;;;;;27.95;22.98;;;;;;;7.84;70.96;98462.63;2204445;80;21186;-81
2021/05/01 05:39:30;;;;;;;22.37;19.67;;;;;;;7.82;70.88;98465.09;2243909;79;21736;-81
2021/05/01 05:42:32;;;;;;;26.35;22.27;;;;;;;7.81;70.89;98459.06;2203819;81;21297;-80
2021/05/01 05:45:34;;;;;;;19.82;17.67;;;;;;;7.80;70.91;98459.23;2243594;79;21273;-80
2021/05/01 05:48:36;;;;;;;21.62;17.48;;;;;;;7.80;71.12;98467.87;2203870;80;21761;-80
2021/05/01 05:51:37;;;;;;;24.10;18.67;;;;;;;7.79;71.23;98478.47;2243906;79;21569;-81
2021/05/01 05:54:39;;;;;;;23.80;19.37;;;;;;;7.76;71.45;98481.38;2203982;81;21308;-81
2021/05/01 05:57:43;;;;;;;25.05;19.35;;;;;;;7.68;71.55;98473.94;2243886;79;21174;-81
2021/05/01 06:00:45;;;;;;;24.60;17.98;;;;;;;7.62;71.96;98468.08;2201453;80;21313;-81
2021/05/01 06:03:47;;;;;;;21.33;17.27;;;;;;;7.60;72.14;98464.83;2236547;80;21606;-81
2021/05/01 06:06:49;;;;;;;20.10;16.82;;;;;;;7.66;72.04;98473.27;2200339;81;21305;-81
2021/05/01 06:09:51;;;;;;;19.23;16.70;;;;;;;7.76;71.96;98460.53;2236882;80;21301;-82
2021/05/01 06:12:52;;;;;;;22.93;18.60;;;;;;;7.88;71.99;98462.63;2200752;81;21598;-81
2021/05/01 06:15:54;;;;;;;23.40;20.25;;;;;;;8.02;71.89;98455.88;2236526;80;21162;-83
2021/05/01 06:18:56;;;;;;;26.02;19.85;;;;;;;8.16;71.90;98448.66;2200419;81;21154;-80
2021/05/01 06:21:57;;;;;;;27.17;20.25;;;;;;;8.32;71.77;98443.86;2236678;80;21146;-81
2021/05/01 06:24:59;;;;;;;25.55;20.88;;;;;;;8.49;71.80;98445.40;2200008;81;21277;-81
2021/05/01 06:28:01;;;;;;;25.05;18.70;;;;;;;8.67;71.45;98444.31;2236768;80;21170;-82
2021/05/01 06:31:03;;;;;;;20.85;17.20;;;;;;;8.89;70.98;98449.23;2200571;81;21166;-80
2021/05/01 06:34:04;;;;;;;23.65;18.70;;;;;;;8.93;70.23;98446.08;2236566;80;21174;-81
2021/05/01 06:37:06;;;;;;;21.70;17.45;;;;;;;8.92;69.60;98451.48;2200111;81;21265;-82
2021/05/01 06:40:09;;;;;;;25.08;18.92;;;;;;;8.89;69.89;98449.23;2236593;80;21139;-81
2021/05/01 06:43:13;;;;;;;25.62;21.12;;;;;;;8.86;69.76;98457.39;2200179;81;21269;-81
2021/05/01 06:46:17;;;;;;;30.27;22.07;;;;;;;8.86;69.81;98454.28;2236869;80;21147;-82
2021/05/01 06:49:19;;;;;;;23.95;19.02;;;;;;;8.93;69.67;98455.22;2200153;81;21302;-81
2021/05/01 06:52:23;;;;;;;26.57;21.45;;;;;;;8.96;69.66;98467.10;2236555;80;21308;-80
2021/05/01 06:55:24;;;;;;;19.90;16.27;;;;;;;8.97;70.29;98461.73;2200226;81;21182;-81
2021/05/01 06:58:26;;;;;;;18.30;15.95;;;;;;;9.01;70.76;98460.38;2236966;80;21300;-83
2021/05/01 07:01:28;;;;;;;22.45;17.40;;;;;;;9.10;70.38;98454.10;2198892;81;21296;-82
2021/05/01 07:04:30;;;;;;;19.25;16.93;;;;;;;9.32;70.49;98454.23;2292979;77;21262;-83
2021/05/01 07:07:32;;;;;;;20.37;16.40;;;;;;;9.51;70.00;98469.42;2292927;77;21128;-80
2021/05/01 07:10:34;;;;;;;20.37;17.30;;;;;;;9.63;69.84;98473.71;2292902;77;21171;-82
2021/05/01 07:13:36;;;;;;;17.80;15.63;;;;;;;9.77;69.35;98466.36;2292958;77;21269;-82
2021/05/01 07:16:38;;;;;;;21.42;18.35;;;;;;;9.88;69.03;98456.77;2293357;77;21270;-80
2021/05/01 07:19:39;;;;;;;20.12;17.35;;;;;;;10.04;69.50;98452.32;2293032;77;21124;-81
2021/05/01 07:22:41;;;;;;;18.60;16.15;;;;;;;10.30;68.75;98446.63;2292917;78;21113;-81
2021/05/01 07:25:43;;;;;;;21.62;16.15;;;;;;;10.46;67.66;98452.96;2292958;77;21274;-84
2021/05/01 07:28:46;;;;;;;20.80;18.32;;;;;;;10.51;67.84;98442.73;2292847;77;21306;-82
2021/05/01 07:31:48;;;;;;;23.27;20.20;;;;;;;10.62;67.94;98442.27;2293379;77;21263;-84
2021/05/01 07:34:50;;;;;;;23.02;19.37;;;;;;;10.70;67.39;98442.15;2293250;77;21258;-81
2021/05/01 07:37:53;;;;;;;19.65;16.12;;;;;;;10.69;67.06;98443.12;2198570;80;21284;-81
2021/05/01 07:40:55;;;;;;;23.32;18.10;;;;;;;10.67;67.21;98444.31;2293070;78;21271;-81
2021/05/01 07:43:56;;;;;;;23.27;18.70;;;;;;;10.65;67.08;98443.19;2292831;78;21298;-83
2021/05/01 07:46:57;;;;;;;20.00;16.60;;;;;;;10.71;67.04;98444.27;2198477;80;21150;-84
2021/05/01 07:49:59;;;;;;;19.35;16.30;;;;;;;10.72;66.33;98440.14;2293205;77;21139;-85
2021/05/01 07:53:01;;;;;;;18.80;16.57;;;;;;;10.73;66.48;98437.03;2198159;80;21325;-85
2021/05/01 07:56:03;;;;;;;23.87;17.48;;;;;;;10.83;66.37;98448.81;2292999;78;21160;-83
2021/05/01 07:59:05;;;;;;;19.30;17.27;;;;;;;10.96;65.87;98455.16;2198302;80;21457;-82
2021/05/01 08:02:07;;;;;;;20.92;17.55;;;;;;;11.10;66.12;98459.02;2302288;77;21294;-81
2021/05/01 08:05:08;;;;;;;25.43;20.72;;;;;;;11.27;64.90;98453.02;2303374;77;21606;-82
2021/05/01 08:08:10;;;;;;;22.00;17.73;;;;;;;11.48;65.32;98460.52;2204215;81;21119;-82
2021/05/01 08:11:11;;;;;;;23.83;19.10;;;;;;;11.51;64.44;98474.05;2243831;79;21146;-83
2021/05/01 08:14:13;;;;;;;24.05;18.62;;;;;;;11.49;64.45;98480.48;2204252;81;21161;-84
2021/05/01 08:17:14;;;;;;;26.07;20.57;;;;;;;11.42;64.37;98476.50;2243934;79;21147;-82
2021/05/01 08:20:17;;;;;;;22.15;18.92;;;;;;;11.42;64.84;98475.69;2204255;80;21146;-85
2021/05/01 08:23:18;;;;;;;23.38;19.20;;;;;;;11.37;64.42;98473.16;2244416;79;21317;-81
2021/05/01 08:26:20;;;;;;;27.85;21.93;;;;;;;11.33;64.16;98468.47;2203806;81;21119;-82
2021/05/01 08:29:22;;;;;;;21.75;18.32;;;;;;;11.34;64.40;98469.61;2243941;79;21166;-88
2021/05/01 08:32:24;;;;;;;19.23;17.23;;;;;;;11.40;63.96;98478.00;2204186;81;21175;-82
2021/05/01 08:35:25;;;;;;;22.50;18.02;;;;;;;11.43;63.79;98475.53;2243579;79;21629;-81
2021/05/01 08:38:28;;;;;;;21.10;17.70;;;;;;;11.50;63.82;98467.18;2186302;81;21194;-83
2021/05/01 08:41:30;;;;;;;19.02;16.73;;;;;;;11.61;63.61;98456.66;2244020;79;21789;-85
2021/05/01 08:44:33;;;;;;;23.30;19.05;;;;;;;11.74;63.29;98450.70;2203949;81;21289;-83
2021/05/01 08:47:35;;;;;;;19.30;15.08;;;;;;;11.94;62.84;98449.02;2243658;79;21607;-83
2021/05/01 08:50:37;;;;;;;21.00;17.55;;;;;;;12.04;62.07;98443.41;2204202;81;21308;-84
2021/05/01 08:53:39;;;;;;;21.68;17.95;;;;;;;12.15;62.22;98442.34;2244157;79;21324;-82
2021/05/01 08:56:40;;;;;;;20.68;17.65;;;;;;;12.24;62.26;98451.67;2204233;81;21610;-85
2021/05/01 08:59:42;;;;;;;22.62;18.70;;;;;;;12.33;61.88;98456.75;2242872;79;21627;-87
2021/05/01 09:02:44;;;;;;;19.82;17.67;;;;;;;12.37;62.04;98450.12;2163994;82;21285;-81
2021/05/01 09:05:46;;;;;;;29.15;21.25;;;;;;;12.49;60.89;98455.91;2222042;80;21281;-83
2021/05/01 09:08:47;;;;;;;21.10;18.27;;;;;;;12.48;61.36;98451.66;2164291;82;21300;-84
2021/05/01 09:11:49;;;;;;;18.30;16.35;;;;;;;12.45;61.29;98455.20;2222392;80;21294;-87
2021/05/01 09:14:51;;;;;;;21.73;19.10;;;;;;;12.40;60.99;98464.16;2164257;82;21342;-81
2021/05/01 09:17:53;;;;;;;22.70;19.10;;;;;;;12.32;61.39;98465.12;2222275;80;21595;-80
2021/05/01 09:20:55;;;;;;;17.57;15.60;;;;;;;12.27;61.34;98475.93;2164060;82;21328;-81
2021/05/01 09:23:56;;;;;;;19.95;17.82;;;;;;;12.17;60.53;98469.73;2222485;80;21337;-81
2021/05/01 09:26:58;;;;;;;22.77;19.20;;;;;;;12.08;61.26;98467.77;2164790;82;21855;-82
2021/05/01 09:30:00;;;;;;;22.30;18.75;;;;;;;12.15;61.38;98471.72;2224228;80;21277;-81
2021/05/01 09:33:02;;;;;;;21.12;18.35;;;;;;;12.26;61.31;98465.12;2164272;82;21296;-86
2021/05/01 09:36:04;;;;;;;21.97;18.37;;;;;;;12.30;61.02;98455.84;2222226;80;21167;-85
2021/05/01 09:39:06;;;;;;;20.35;18.17;;;;;;;12.33;60.60;98463.31;2164090;82;21293;-84
2021/05/01 09:42:09;;;;;;;21.55;19.27;;;;;;;12.31;60.62;98462.20;2222675;80;21547;-89
2021/05/01 09:45:16;;;;;;;22.10;18.87;;;;;;;12.30;60.56;98459.78;2164318;82;21847;-85
2021/05/01 09:48:16;;;;;;;25.48;20.43;;;;;;;12.30;60.70;98460.59;2223383;80;21147;-82
2021/05/01 09:51:18;;;;;;;24.92;22.32;;;;;;;12.31;60.71;98459.58;2164126;82;21741;-84
2021/05/01 09:54:19;;;;;;;24.47;21.87;;;;;;;12.36;60.70;98465.06;2222297;80;21156;-84
2021/05/01 09:57:21;;;;;;;26.90;22.80;;;;;;;12.39;60.48;98456.78;2136475;82;21610;-84
2021/05/01 10:00:23;;;;;;;28.70;22.32;;;;;;;12.43;60.50;98462.44;2226052;79;21575;-85
2021/05/01 10:03:25;;;;;;;28.65;22.40;;;;;;;12.42;59.94;98457.69;2200468;81;21199;-87
2021/05/01 10:06:27;;;;;;;21.62;19.32;;;;;;;12.63;60.27;98448.88;2236947;80;21166;-88
2021/05/01 10:09:28;;;;;;;23.60;19.23;;;;;;;12.81;59.56;98442.55;2200200;81;21318;-84
2021/05/01 10:12:30;;;;;;;21.55;19.20;;;;;;;12.95;59.26;98434.16;2236189;80;21186;-84
2021/05/01 10:15:32;;;;;;;25.95;20.70;;;;;;;13.44;58.54;98427.72;2199802;81;21828;-84
2021/05/01 10:18:34;;;;;;;23.22;20.23;;;;;;;13.44;58.54;98427.72;2236224;80;21584;-85
2021/05/01 10:21:36;;;;;;;20.85;18.70;;;;;;;13.65;57.80;98432.73;2200008;81;21277;-85
2021/05/01 10:24:38;;;;;;;21.40;18.65;;;;;;;13.79;56.52;98427.42;2236481;80;21182;-84
2021/05/01 10:27:39;;;;;;;23.07;20.72;;;;;;;13.87;56.25;98413.53;2200280;81;21563;-84
2021/05/01 10:30:42;;;;;;;23.32;20.82;;;;;;;13.86;56.82;98416.37;2236622;80;21622;-86
2021/05/01 10:33:44;;;;;;;23.87;19.75;;;;;;;13.89;56.54;98413.32;2200571;81;21598;-85
2021/05/01 10:36:46;;;;;;;22.80;20.32;;;;;;;13.78;56.33;98396.87;2236957;80;21602;-84
2021/05/01 10:39:49;;;;;;;25.27;21.90;;;;;;;13.68;55.86;98417.03;2200676;81;21714;-83
2021/05/01 10:42:51;;;;;;;21.48;17.77;;;;;;;13.68;55.86;98417.03;2236711;80;21166;-83
2021/05/01 10:45:52;;;;;;;22.52;20.10;;;;;;;13.55;55.27;98421.02;2200116;81;21305;-83
2021/05/01 10:48:54;;;;;;;23.20;20.52;;;;;;;13.39;55.82;98418.30;2236667;80;21265;-84
2021/05/01 10:51:56;;;;;;;23.25;20.37;;;;;;;13.25;55.74;98417.50;2200528;81;21236;-84
2021/05/01 10:54:58;;;;;;;21.35;18.57;;;;;;;13.19;56.17;98420.12;2236913;80;21300;-84
2021/05/01 10:58:01;;;;;;;20.88;18.45;;;;;;;13.19;55.47;98418.80;2200660;81;21143;-84
2021/05/01 11:01:03;;;;;;;20.80;18.55;;;;;;;13.24;55.76;98413.77;2232450;80;21301;-84
2021/05/01 11:04:05;;;;;;;23.18;19.12;;;;;;;13.30;55.80;98421.66;2223248;80;21175;-83
2021/05/01 11:07:07;;;;;;;22.98;20.55;;;;;;;13.30;55.65;98416.39;2164104;82;21800;-85
2021/05/01 11:10:09;;;;;;;26.57;22.62;;;;;;;13.37;55.92;98402.73;2222390;80;21171;-85
2021/05/01 11:13:11;;;;;;;27.55;24.55;;;;;;;13.47;55.81;98394.42;2164556;82;21767;-85
2021/05/01 11:16:13;;;;;;;26.10;23.30;;;;;;;13.55;55.95;98399.98;2222228;80;21175;-84
2021/05/01 11:19:14;;;;;;;20.65;18.45;;;;;;;13.49;55.76;98406.05;2164678;82;21320;-84
2021/05/01 11:22:16;;;;;;;29.87;25.48;;;;;;;13.51;55.58;98406.65;2222344;80;21631;-83
2021/05/01 11:25:18;;;;;;;25.60;22.80;;;;;;;13.53;55.95;98412.02;2164303;82;21547;-83
2021/05/01 11:28:19;;;;;;;32.25;25.40;;;;;;;13.65;55.87;98414.31;2222258;80;21171;-83
2021/05/01 11:31:21;;;;;;;31.10;27.67;;;;;;;13.65;55.87;98414.31;2164090;82;21305;-83
2021/05/01 11:34:23;;;;;;;31.95;28.45;;;;;;;13.81;55.68;98407.00;2222210;80;21575;-83
2021/05/01 11:37:26;;;;;;;32.53;26.97;;;;;;;13.90;55.77;98409.70;2164305;82;21171;-86
2021/05/01 11:40:28;;;;;;;32.15;26.23;;;;;;;13.91;54.91;98406.85;2222213;80;21139;-85
2021/05/01 11:43:30;;;;;;;27.25;24.40;;;;;;;13.87;55.68;98399.56;2164319;82;21150;-85
2021/05/01 11:46:32;;;;;;;29.65;26.20;;;;;;;13.87;55.68;98399.56;2222121;80;21131;-86
2021/05/01 11:49:33;;;;;;;29.55;24.80;;;;;;;13.92;55.13;98386.61;2164283;82;21756;-83
2021/05/01 11:52:35;;;;;;;31.65;27.90;;;;;;;14.22;54.55;98402.66;2222397;80;21607;-83
2021/05/01 11:55:37;;;;;;;37.67;32.15;;;;;;;14.22;54.55;98402.66;2167951;82;21296;-90
2021/05/01 11:58:38;;;;;;;30.55;27.35;;;;;;;14.19;54.90;98393.37;2226351;80;21302;-89
2021/05/01 12:01:40;;;;;;;33.05;29.50;;;;;;;14.23;54.73;98397.69;2181072;80;21297;-89
2021/05/01 12:04:43;;;;;;;25.25;22.20;;;;;;;14.33;54.09;98394.09;2239332;80;21265;-92
2021/05/01 12:07:45;;;;;;;30.23;26.62;;;;;;;14.29;54.16;98406.59;2202196;81;21151;-87
2021/05/01 12:10:46;;;;;;;31.65;28.30;;;;;;;14.27;54.20;98408.13;2236728;80;21601;-87
2021/05/01 12:13:48;;;;;;;27.52;24.50;;;;;;;14.21;54.33;98412.90;2200288;81;21159;-85
2021/05/01 12:16:50;;;;;;;29.82;26.35;;;;;;;14.24;54.57;98415.11;2236921;80;21190;-83
2021/05/01 12:19:52;;;;;;;31.37;28.05;;;;;;;14.15;54.46;98423.75;2200980;81;21281;-86
2021/05/01 12:22:54;;;;;;;30.27;26.55;;;;;;;14.24;54.75;98421.17;2236809;80;21159;-83
2021/05/01 12:25:56;;;;;;;29.77;26.57;;;;;;;14.23;54.75;98416.13;2200271;81;21277;-86
2021/05/01 12:28:58;;;;;;;30.05;24.85;;;;;;;14.21;54.85;98420.80;2236722;80;21163;-85
2021/05/01 12:32:02;;;;;;;33.80;28.35;;;;;;;14.20;54.70;98415.23;2200388;81;21182;-85
2021/05/01 12:35:04;;;;;;;34.00;26.45;;;;;;;14.05;54.89;98412.05;2236744;80;21159;-86
2021/05/01 12:38:06;;;;;;;36.73;28.92;;;;;;;13.97;55.38;98415.72;2200230;81;21324;-86
2021/05/01 12:41:08;;;;;;;35.60;28.32;;;;;;;13.93;55.54;98406.64;2236494;80;21147;-86
2021/05/01 12:44:09;;;;;;;38.70;29.23;;;;;;;13.86;55.74;98403.22;2200536;81;21155;-85
2021/05/01 12:47:11;;;;;;;35.73;28.25;;;;;;;13.74;55.97;98404.38;2236792;80;21163;-86
2021/05/01 12:50:14;;;;;;;40.78;29.75;;;;;;;13.74;55.97;98404.38;2200038;81;21277;-86
2021/05/01 12:53:16;;;;;;;36.83;26.10;;;;;;;13.76;56.24;98409.43;2236736;80;21143;-85
2021/05/01 12:56:18;;;;;;;35.83;25.95;;;;;;;13.69;56.36;98402.86;2200439;81;21147;-85
2021/05/01 12:59:20;;;;;;;33.28;24.60;;;;;;;13.74;56.60;98401.75;2237137;80;21293;-84
2021/05/01 13:02:22;;;;;;;38.08;28.12;;;;;;;13.75;56.30;98394.15;2202242;80;21190;-85
2021/05/01 13:05:24;;;;;;;34.30;25.57;;;;;;;13.66;56.87;98385.67;2243940;79;21332;-86
2021/05/01 13:11:47;;;;;;;35.98;28.02;;;;;;;13.44;57.69;98372.97;2240298;79;21296;-88
2021/05/01 13:14:48;;;;;;;41.23;30.55;;;;;;;13.64;57.71;98377.70;2203780;80;21313;-87
2021/05/01 13:17:50;;;;;;;36.40;28.17;;;;;;;13.64;57.71;98377.70;2243561;79;21147;-88
2021/05/01 13:20:52;;;;;;;32.65;23.25;;;;;;;13.61;57.66;98380.72;2203784;80;21272;-86
2021/05/01 13:23:54;;;;;;;36.20;26.12;;;;;;;13.33;58.33;98373.91;2215622;79;21166;-84
2021/05/01 13:26:56;;;;;;;33.20;25.27;;;;;;;13.33;58.33;98373.91;2204845;80;21567;-91
2021/05/01 13:29:58;;;;;;;36.60;26.57;;;;;;;13.40;58.58;98385.73;2244377;79;21269;-86
2021/05/01 13:32:59;;;;;;;42.85;30.60;;;;;;;13.32;58.70;98384.13;2204156;81;21154;-85
2021/05/01 13:36:01;;;;;;;40.73;29.70;;;;;;;13.30;58.63;98380.90;2242672;79;21768;-84
2021/05/01 13:39:03;;;;;;;33.67;25.97;;;;;;;13.24;59.92;98386.16;2202722;81;21336;-84
2021/05/01 13:42:04;;;;;;;37.30;29.77;;;;;;;13.10;59.50;98380.09;2242968;79;21667;-83
2021/05/01 13:45:06;;;;;;;45.45;32.28;;;;;;;13.13;59.62;98386.75;2203794;81;21288;-83
2021/05/01 13:48:08;;;;;;;38.55;27.55;;;;;;;13.02;60.09;98390.30;2243173;79;21144;-84
2021/05/01 13:51:11;;;;;;;34.60;26.90;;;;;;;13.06;59.96;98384.92;2204017;80;21165;-83
2021/05/01 13:54:13;;;;;;;28.40;20.62;;;;;;;13.12;60.11;98378.56;2243881;79;21308;-84
2021/05/01 13:57:15;;;;;;;36.77;29.45;;;;;;;13.20;60.23;98393.66;2205749;81;21139;-82
2021/05/01 14:00:17;;;;;;;39.78;30.45;;;;;;;13.07;60.38;98396.25;2245184;79;21178;-82
2021/05/01 14:03:19;;;;;;;37.30;29.40;;;;;;;13.06;60.09;98388.06;2201197;80;21187;-83
2021/05/01 14:06:21;;;;;;;37.20;28.80;;;;;;;13.12;60.38;98396.45;2236908;80;21123;-84
2021/05/01 14:09:23;;;;;;;40.30;31.45;;;;;;;13.00;60.78;98390.20;2200129;81;21159;-83